createdAt,value
2022-08-05T00:00:34.513Z,5.90
2022-08-05T00:02:51.088Z,6.45
2022-08-05T00:04:55.744Z,8.18
2022-08-05T00:06:57.914Z,6.38
2022-08-05T00:09:01.575Z,6.28
2022-08-05T00:11:20.780Z,7.47
2022-08-05T00:13:52.941Z,4.72
2022-08-05T00:15:58.070Z,9.15
2022-08-05T00:18:02.497Z,4.28
2022-08-05T00:20:05.154Z,6.55
2022-08-05T00:22:11.243Z,3.78
2022-08-05T00:24:19.001Z,8.93
2022-08-05T00:26:26.963Z,5.00
2022-08-05T00:28:29.809Z,5.93
2022-08-05T00:30:34.298Z,6.63
2022-08-05T00:32:36.442Z,7.05
2022-08-05T00:37:10.726Z,6.40
2022-08-05T00:39:15.616Z,9.40
2022-08-05T00:41:51.975Z,5.10
2022-08-05T00:43:57.266Z,8.48
2022-08-05T00:45:59.317Z,6.53
2022-08-05T00:48:05.563Z,7.05
2022-08-05T00:50:09.634Z,5.47
2022-08-05T00:52:11.608Z,9.10
2022-08-05T00:54:14.197Z,6.43
2022-08-05T00:56:22.826Z,5.80
2022-08-05T00:58:27.562Z,5.45
2022-08-05T01:00:31.468Z,5.82
2022-08-05T01:02:35.570Z,7.78
2022-08-05T01:04:37.610Z,7.53
2022-08-05T01:06:47.885Z,7.88
2022-08-05T01:08:50.927Z,5.97
2022-08-05T01:11:14.527Z,4.90
2022-08-05T01:13:58.876Z,4.80
2022-08-05T01:16:05.129Z,5.47
2022-08-05T01:18:14.498Z,4.63
2022-08-05T01:20:34.296Z,5.78
2022-08-05T01:22:47.182Z,7.28
2022-08-05T01:25:07.575Z,11.10
2022-08-05T01:27:50.625Z,3.47
2022-08-05T01:30:03.995Z,5.38
2022-08-05T01:32:12.509Z,6.13
2022-08-05T01:34:26.949Z,5.32
2022-08-05T01:36:34.219Z,8.43
2022-08-05T01:38:48.501Z,3.25
2022-08-05T01:40:53.056Z,4.63
2022-08-05T01:42:57.576Z,4.38
2022-08-05T01:45:02.225Z,6.10
2022-08-05T01:47:06.827Z,6.13
2022-08-05T01:49:23.949Z,7.13
2022-08-05T01:51:29.403Z,7.82
2022-08-05T01:53:57.230Z,5.97
2022-08-05T01:55:59.903Z,5.18
2022-08-05T01:58:15.779Z,6.60
2022-08-05T02:00:18.868Z,5.50
2022-08-05T02:02:28.343Z,6.25
2022-08-05T02:04:34.919Z,6.50
2022-08-05T02:06:39.533Z,7.70
2022-08-05T02:08:54.920Z,5.77
2022-08-05T02:11:07.521Z,7.20
2022-08-05T02:13:21.138Z,6.35
2022-08-05T02:15:35.967Z,6.90
2022-08-05T02:18:32.728Z,7.57
2022-08-05T02:20:26.639Z,6.68
2022-08-05T02:22:33.008Z,5.22
2022-08-05T02:24:39.699Z,4.50
2022-08-05T02:26:51.884Z,4.78
2022-08-05T02:28:58.316Z,5.38
2022-08-05T02:31:14.458Z,6.05
2022-08-05T02:33:24.164Z,3.88
2022-08-05T02:35:33.300Z,7.82
2022-08-05T02:37:43.208Z,6.97
2022-08-05T02:39:52.270Z,8.98
2022-08-05T02:42:01.293Z,7.07
2022-08-05T02:44:12.119Z,5.57
2022-08-05T02:46:17.037Z,6.63
2022-08-05T02:48:31.226Z,6.13
2022-08-05T02:50:33.750Z,6.38
2022-08-05T02:52:37.260Z,4.15
2022-08-05T02:54:52.081Z,6.03
2022-08-05T02:56:55.182Z,6.78
2022-08-05T02:59:00.516Z,5.43
2022-08-05T03:01:03.302Z,6.15
2022-08-05T03:03:10.291Z,6.03
2022-08-05T03:05:15.242Z,5.82
2022-08-05T03:07:40.541Z,7.72
2022-08-05T03:09:51.625Z,6.28
2022-08-05T03:11:57.919Z,5.80
2022-08-05T03:14:03.137Z,5.57
2022-08-05T03:16:06.365Z,5.57
2022-08-05T03:18:11.850Z,5.55
2022-08-05T03:20:14.014Z,5.38
2022-08-05T03:22:19.070Z,4.13
2022-08-05T03:24:34.017Z,6.95
2022-08-05T03:26:38.105Z,4.85
2022-08-05T03:28:40.185Z,6.10
2022-08-05T03:30:43.368Z,5.70
2022-08-05T03:32:46.247Z,5.13
2022-08-05T03:34:50.714Z,3.63
2022-08-05T03:36:53.933Z,4.32
2022-08-05T03:38:56.167Z,5.38
2022-08-05T03:40:58.262Z,5.15
2022-08-05T03:43:01.439Z,3.28
2022-08-05T03:45:23.611Z,5.32
2022-08-05T03:47:30.359Z,8.47
2022-08-05T03:49:51.405Z,4.90
2022-08-05T03:52:48.603Z,6.65
2022-08-05T03:55:52.915Z,6.30
2022-08-05T03:57:02.688Z,3.85
2022-08-05T03:59:46.906Z,8.25
2022-08-05T04:04:09.819Z,7.22
2022-08-05T04:06:13.834Z,6.25
2022-08-05T04:08:34.652Z,5.45
2022-08-05T04:10:39.625Z,7.22
2022-08-05T04:14:44.560Z,4.63
2022-08-05T04:16:49.996Z,6.43
2022-08-05T04:18:57.816Z,5.75
2022-08-05T04:21:00.304Z,5.93
2022-08-05T04:23:02.328Z,5.40
2022-08-05T04:25:06.107Z,5.40
2022-08-05T04:27:13.867Z,6.65
2022-08-05T04:29:18.049Z,6.40
2022-08-05T04:31:20.446Z,4.30
2022-08-05T04:33:54.966Z,5.57
2022-08-05T04:36:15.760Z,4.60
2022-08-05T04:38:10.759Z,7.15
2022-08-05T04:40:19.491Z,5.68
2022-08-05T04:42:25.552Z,4.55
2022-08-05T04:44:29.944Z,5.82
2022-08-05T04:46:32.624Z,7.03
2022-08-05T04:48:34.957Z,11.20
2022-08-05T04:51:01.979Z,4.97
2022-08-05T04:53:05.236Z,5.72
2022-08-05T04:55:14.442Z,6.40
2022-08-05T04:57:17.452Z,7.78
2022-08-05T04:59:33.594Z,5.30
2022-08-05T05:02:07.607Z,4.57
2022-08-05T05:04:05.591Z,8.60
2022-08-05T05:06:40.671Z,7.78
2022-08-05T05:08:42.791Z,5.57
2022-08-05T05:10:56.164Z,9.35
2022-08-05T05:12:58.755Z,6.70
2022-08-05T05:15:03.808Z,5.82
2022-08-05T05:17:07.643Z,6.50
2022-08-05T05:19:23.493Z,7.88
2022-08-05T05:21:28.835Z,6.30
2022-08-05T05:24:01.750Z,8.55
2022-08-05T05:26:06.261Z,6.95
2022-08-05T05:28:09.406Z,10.75
2022-08-05T05:30:15.548Z,4.28
2022-08-05T05:32:31.148Z,7.72
2022-08-05T05:34:33.987Z,5.20
2022-08-05T05:36:37.415Z,7.38
2022-08-05T05:38:41.120Z,5.78
2022-08-05T05:40:49.656Z,6.53
2022-08-05T05:42:54.183Z,7.30
2022-08-05T05:44:59.524Z,5.30
2022-08-05T05:47:04.352Z,7.00
2022-08-05T05:49:23.061Z,6.88
2022-08-05T05:51:27.824Z,5.60
2022-08-05T05:53:30.167Z,6.45
2022-08-05T05:56:01.370Z,7.13
2022-08-05T05:58:05.558Z,7.72
2022-08-05T06:00:10.336Z,6.68
2022-08-05T06:02:12.951Z,8.63
2022-08-05T06:04:15.181Z,10.48
2022-08-05T06:06:17.396Z,6.18
2022-08-05T06:08:31.650Z,5.80
2022-08-05T06:10:36.570Z,6.95
2022-08-05T06:12:42.310Z,7.15
2022-08-05T06:14:44.734Z,6.22
2022-08-05T06:16:46.859Z,6.53
2022-08-05T06:18:48.910Z,5.72
2022-08-05T06:20:57.452Z,4.47
2022-08-05T06:22:59.973Z,6.28
2022-08-05T06:25:24.911Z,3.50
2022-08-05T06:28:11.583Z,6.97
2022-08-05T06:30:04.225Z,4.65
2022-08-05T06:32:25.585Z,5.65
2022-08-05T06:34:28.594Z,3.90
2022-08-05T06:36:30.497Z,3.50
2022-08-05T06:38:54.870Z,2.70
2022-08-05T06:40:57.126Z,4.00
2022-08-05T06:43:01.793Z,4.47
2022-08-05T06:45:08.567Z,6.30
2022-08-05T06:47:30.128Z,5.60
2022-08-05T06:50:00.496Z,3.13
2022-08-05T06:51:57.257Z,4.68
2022-08-05T06:54:03.200Z,4.63
2022-08-05T06:56:05.989Z,3.30
2022-08-05T06:58:34.779Z,4.18
2022-08-05T07:00:38.901Z,4.90
2022-08-05T07:02:44.491Z,3.28
2022-08-05T07:04:46.577Z,2.00
2022-08-05T07:06:50.401Z,4.00
2022-08-05T07:10:57.980Z,6.55
2022-08-05T07:13:52.465Z,2.50
2022-08-05T07:16:01.066Z,3.22
2022-08-05T07:18:09.597Z,3.80
2022-08-05T07:22:34.308Z,2.50
2022-08-05T07:24:43.921Z,3.75
2022-08-05T07:26:54.767Z,5.40
2022-08-05T07:28:57.189Z,4.43
2022-08-05T07:31:01.778Z,5.63
2022-08-05T07:33:09.742Z,2.38
2022-08-05T07:35:55.953Z,3.30
2022-08-05T07:37:37.643Z,3.80
2022-08-05T07:40:26.622Z,2.55
2022-08-05T07:42:14.488Z,3.83
2022-08-05T07:44:19.403Z,2.20
2022-08-05T07:46:24.726Z,7.05
2022-08-05T07:49:02.385Z,5.30
2022-08-05T07:50:50.223Z,3.60
2022-08-05T07:52:52.320Z,3.45
2022-08-05T07:54:55.289Z,3.75
2022-08-05T07:57:02.786Z,4.47
2022-08-05T07:59:22.033Z,4.47
2022-08-05T08:01:27.839Z,3.63
2022-08-05T08:03:44.510Z,1.77
2022-08-05T08:05:49.832Z,2.60
2022-08-05T08:07:58.943Z,2.03
2022-08-05T08:10:01.737Z,3.20
2022-08-05T08:12:14.677Z,3.53
2022-08-05T08:14:22.603Z,2.50
2022-08-05T08:16:35.649Z,1.75
2022-08-05T08:18:50.228Z,2.88
2022-08-05T08:21:03.094Z,4.03
2022-08-05T08:23:11.660Z,3.70
2022-08-05T08:25:58.938Z,3.20
2022-08-05T08:27:52.092Z,4.07
2022-08-05T08:30:05.714Z,3.10
2022-08-05T08:32:18.551Z,2.70
2022-08-05T08:34:33.321Z,2.50
2022-08-05T08:36:46.346Z,8.15
2022-08-05T08:38:55.922Z,3.25
2022-08-05T08:41:00.227Z,4.75
2022-08-05T08:45:19.668Z,4.40
2022-08-05T08:45:29.476Z,3.42
2022-08-05T08:48:07.750Z,3.42
2022-08-05T08:50:06.196Z,3.30
2022-08-05T08:52:34.695Z,3.92
2022-08-05T08:54:37.469Z,3.95
2022-08-05T08:56:47.663Z,3.25
2022-08-05T08:58:52.002Z,4.53
2022-08-05T09:00:54.833Z,3.10
2022-08-05T09:02:58.288Z,4.57
2022-08-05T09:05:17.643Z,2.50
2022-08-05T09:07:28.339Z,3.08
2022-08-05T09:09:35.438Z,2.08
2022-08-05T09:11:53.167Z,2.97
2022-08-05T09:14:10.203Z,2.75
2022-08-05T09:16:19.958Z,4.38
2022-08-05T09:18:21.955Z,3.40
2022-08-05T09:20:37.468Z,3.97
2022-08-05T09:23:18.900Z,3.58
2022-08-05T09:25:24.376Z,3.92
2022-08-05T09:28:05.220Z,3.47
2022-08-05T09:30:07.486Z,3.75
2022-08-05T09:32:42.253Z,2.97
2022-08-05T09:34:58.476Z,3.40
2022-08-05T09:37:00.681Z,2.95
2022-08-05T09:39:17.975Z,2.85
2022-08-05T09:41:20.722Z,2.78
2022-08-05T09:43:40.977Z,3.65
2022-08-05T09:46:06.791Z,1.92
2022-08-05T09:48:26.958Z,1.77
2022-08-05T09:50:44.622Z,1.65
2022-08-05T09:52:52.783Z,6.60
2022-08-05T09:54:59.583Z,1.73
2022-08-05T09:57:23.375Z,3.75
2022-08-05T09:59:27.666Z,2.88
2022-08-05T10:01:33.679Z,2.60
2022-08-05T10:03:56.889Z,5.07
2022-08-05T10:06:07.531Z,2.05
2022-08-05T10:08:36.107Z,2.33
2022-08-05T10:10:53.977Z,3.80
2022-08-05T10:13:01.183Z,4.78
2022-08-05T10:15:34.350Z,2.38
2022-08-05T10:17:37.297Z,1.60
2022-08-05T10:20:04.389Z,2.00
2022-08-05T10:22:03.986Z,2.72
2022-08-05T10:24:10.577Z,2.30
2022-08-05T10:26:14.402Z,1.58
2022-08-05T10:28:28.914Z,2.50
2022-08-05T10:32:46.896Z,2.33
2022-08-05T10:33:01.725Z,2.78
2022-08-05T10:35:05.470Z,2.83
2022-08-05T10:39:24.999Z,1.75
2022-08-05T10:41:54.277Z,1.77
2022-08-05T10:44:06.935Z,1.25
2022-08-05T10:46:12.107Z,1.23
2022-08-05T10:48:52.544Z,1.65
2022-08-05T10:51:01.398Z,1.95
2022-08-05T10:53:05.468Z,1.60
2022-08-05T10:55:11.069Z,1.95
2022-08-05T10:57:31.843Z,1.85
2022-08-05T11:00:02.963Z,2.97
2022-08-05T11:02:14.582Z,1.30
2022-08-05T11:04:46.433Z,1.85
2022-08-05T11:07:01.379Z,4.88
2022-08-05T11:09:24.478Z,2.00
2022-08-05T11:11:52.104Z,2.72
2022-08-05T11:13:58.346Z,6.88
2022-08-05T11:16:34.057Z,3.13
2022-08-05T11:18:47.127Z,1.75
2022-08-05T11:20:51.521Z,2.10
2022-08-05T11:22:54.122Z,2.03
2022-08-05T11:26:04.311Z,1.70
2022-08-05T11:28:00.652Z,2.55
2022-08-05T11:30:03.113Z,2.35
2022-08-05T11:32:25.812Z,1.52
2022-08-05T11:34:39.902Z,2.80
2022-08-05T11:36:52.965Z,3.70
2022-08-05T11:38:57.829Z,1.65
2022-08-05T11:41:34.397Z,2.13
2022-08-05T11:44:06.620Z,4.28
2022-08-05T11:46:15.302Z,3.63
2022-08-05T11:48:13.412Z,2.70
2022-08-05T11:50:17.169Z,4.63
2022-08-05T11:52:29.204Z,3.67
2022-08-05T11:54:38.249Z,3.97
2022-08-05T11:56:43.729Z,1.83
2022-08-05T11:58:53.332Z,3.30
2022-08-05T12:01:08.491Z,3.58
2022-08-05T12:03:28.655Z,2.35
2022-08-05T12:05:36.524Z,1.63
2022-08-05T12:08:09.137Z,3.10
2022-08-05T12:10:09.550Z,1.73
2022-08-05T12:12:13.766Z,2.80
2022-08-05T12:14:16.905Z,3.85
2022-08-05T12:16:25.544Z,1.60
2022-08-05T12:18:39.003Z,2.78
2022-08-05T12:20:41.441Z,2.30
2022-08-05T12:22:46.318Z,3.33
2022-08-05T12:24:51.833Z,1.92
2022-08-05T12:26:55.314Z,4.18
2022-08-05T12:28:57.927Z,3.20
2022-08-05T12:31:02.416Z,5.38
2022-08-05T12:33:07.474Z,3.63
2022-08-05T12:35:47.940Z,1.92
2022-08-05T12:37:49.759Z,2.53
2022-08-05T12:40:03.525Z,3.90
2022-08-05T12:42:16.620Z,1.85
2022-08-05T12:44:28.592Z,3.75
2022-08-05T12:46:38.477Z,3.40
2022-08-05T12:48:40.686Z,3.13
2022-08-05T12:50:45.023Z,3.42
2022-08-05T12:52:59.707Z,2.75
2022-08-05T12:55:01.840Z,1.45
2022-08-05T12:57:09.689Z,2.17
2022-08-05T12:59:20.742Z,6.10
2022-08-05T13:02:01.166Z,2.38
2022-08-05T13:03:51.703Z,3.50
2022-08-05T13:05:54.151Z,2.60
2022-08-05T13:07:59.929Z,2.22
2022-08-05T13:10:02.836Z,1.30
2022-08-05T13:12:13.221Z,2.63
2022-08-05T13:14:24.821Z,1.20
2022-08-05T13:16:49.820Z,3.05
2022-08-05T13:18:57.745Z,1.58
2022-08-05T13:21:03.889Z,1.77
2022-08-05T13:23:07.324Z,1.85
2022-08-05T13:25:18.855Z,2.05
2022-08-05T13:27:38.341Z,4.00
2022-08-05T13:29:59.576Z,1.95
2022-08-05T13:32:05.231Z,3.45
2022-08-05T13:34:25.161Z,2.38
2022-08-05T13:36:27.749Z,3.38
2022-08-05T13:38:36.113Z,3.08
2022-08-05T13:40:50.093Z,2.38
2022-08-05T13:42:55.735Z,3.15
2022-08-05T13:44:57.943Z,3.35
2022-08-05T13:47:04.732Z,1.38
2022-08-05T13:49:13.709Z,3.20
2022-08-05T13:53:48.110Z,4.63
2022-08-05T13:55:58.722Z,1.58
2022-08-05T13:58:03.865Z,1.58
2022-08-05T14:00:06.668Z,2.85
2022-08-05T14:02:19.759Z,3.53
2022-08-05T14:04:40.528Z,1.70
2022-08-05T14:06:47.552Z,1.73
2022-08-05T14:08:49.905Z,1.60
2022-08-05T14:10:51.881Z,7.13
2022-08-05T14:12:54.467Z,3.17
2022-08-05T14:14:56.691Z,5.53
2022-08-05T14:16:59.690Z,8.00
2022-08-05T14:19:04.493Z,6.47
2022-08-05T14:22:09.724Z,5.95
2022-08-05T14:23:36.708Z,6.85
2022-08-05T14:25:45.043Z,6.05
2022-08-05T14:27:49.080Z,3.25
2022-08-05T14:29:52.068Z,4.68
2022-08-05T14:32:11.583Z,4.57
2022-08-05T14:34:16.522Z,5.28
2022-08-05T14:36:20.639Z,4.75
2022-08-05T14:38:32.739Z,5.68
2022-08-05T14:42:41.356Z,7.90
2022-08-05T14:44:45.910Z,5.40
2022-08-05T14:46:50.514Z,3.38
2022-08-05T14:48:56.844Z,3.38
2022-08-05T14:50:59.388Z,3.17
2022-08-05T14:53:05.818Z,3.13
2022-08-05T14:55:08.713Z,2.00
2022-08-05T14:57:23.139Z,3.17
2022-08-05T14:59:38.356Z,3.88
2022-08-05T15:01:47.980Z,2.90
2022-08-05T15:03:51.641Z,6.85
2022-08-05T15:06:07.772Z,4.03
2022-08-05T15:08:17.990Z,4.07
2022-08-05T15:10:37.607Z,6.85
2022-08-05T15:13:00.167Z,1.60
2022-08-05T15:15:15.533Z,3.03
2022-08-05T15:17:46.748Z,1.73
2022-08-05T15:19:41.278Z,6.05
2022-08-05T15:21:53.280Z,3.35
2022-08-05T15:24:00.125Z,5.40
2022-08-05T15:26:03.287Z,8.43
2022-08-05T15:28:05.508Z,8.07
2022-08-05T15:30:10.808Z,4.15
2022-08-05T15:32:19.112Z,3.15
2022-08-05T15:34:32.950Z,1.88
2022-08-05T15:36:35.755Z,2.08
2022-08-05T15:38:41.881Z,2.28
2022-08-05T15:41:21.167Z,3.15
2022-08-05T15:43:10.964Z,4.53
2022-08-05T15:45:18.665Z,10.30
2022-08-05T15:47:25.502Z,17.05
2022-08-05T15:49:40.819Z,9.70
2022-08-05T15:52:12.596Z,4.65
2022-08-05T15:54:15.760Z,4.63
2022-08-05T15:56:20.345Z,2.00
2022-08-05T15:58:23.154Z,5.55
2022-08-05T16:00:26.380Z,5.45
2022-08-05T16:05:15.085Z,5.57
2022-08-05T16:07:17.467Z,1.92
2022-08-05T16:09:45.911Z,3.00
2022-08-05T16:11:52.664Z,5.47
2022-08-05T16:13:55.175Z,5.43
2022-08-05T16:16:01.026Z,5.03
2022-08-05T16:18:08.943Z,4.00
2022-08-05T16:20:12.372Z,1.30
2022-08-05T16:22:15.498Z,3.05
2022-08-05T16:24:41.164Z,1.63
2022-08-05T16:26:53.861Z,3.65
2022-08-05T16:28:55.974Z,4.53
2022-08-05T16:30:58.746Z,2.33
2022-08-05T16:33:01.405Z,4.18
2022-08-05T16:35:03.685Z,2.40
2022-08-05T16:38:02.589Z,4.03
2022-08-05T16:40:06.378Z,2.88
2022-08-05T16:42:14.978Z,3.55
2022-08-05T16:44:15.552Z,4.07
2022-08-05T16:46:24.594Z,3.35
2022-08-05T16:48:33.911Z,4.00
2022-08-05T16:50:38.404Z,1.95
2022-08-05T16:52:40.373Z,3.25
2022-08-05T16:54:48.272Z,3.13
2022-08-05T16:56:51.935Z,1.42
2022-08-05T16:58:54.416Z,2.97
2022-08-05T17:00:56.502Z,2.85
2022-08-05T17:03:02.328Z,4.22
2022-08-05T17:05:06.062Z,6.00
2022-08-05T17:07:11.158Z,1.70
2022-08-05T17:09:14.010Z,3.80
2022-08-05T17:11:17.407Z,1.95
2022-08-05T17:13:21.298Z,3.05
2022-08-05T17:15:48.753Z,4.10
2022-08-05T17:18:02.282Z,2.72
2022-08-05T17:20:07.856Z,3.53
2022-08-05T17:22:24.806Z,2.58
2022-08-05T17:24:38.759Z,2.97
2022-08-05T17:26:48.316Z,3.60
2022-08-05T17:28:50.929Z,3.30
2022-08-05T17:30:52.952Z,2.60
2022-08-05T17:32:56.203Z,1.67
2022-08-05T17:35:00.765Z,3.13
2022-08-05T17:37:04.681Z,2.25
2022-08-05T17:39:33.186Z,1.90
2022-08-05T17:42:19.802Z,3.10
2022-08-05T17:44:01.918Z,2.90
2022-08-05T17:46:05.708Z,3.08
2022-08-05T17:48:12.586Z,1.83
2022-08-05T17:50:14.836Z,2.83
2022-08-05T17:52:30.849Z,2.47
2022-08-05T17:54:35.736Z,1.30
2022-08-05T17:56:38.876Z,2.88
2022-08-05T17:58:40.919Z,4.00
2022-08-05T18:00:50.927Z,1.80
2022-08-05T18:02:53.761Z,2.28
2022-08-05T18:04:56.475Z,3.38
2022-08-05T18:07:00.536Z,3.42
2022-08-05T18:09:04.034Z,1.67
2022-08-05T18:11:06.219Z,1.63
2022-08-05T18:13:12.251Z,3.55
2022-08-05T18:15:15.123Z,1.95
2022-08-05T18:18:01.118Z,1.40
2022-08-05T18:19:46.664Z,2.10
2022-08-05T18:22:09.568Z,2.80
2022-08-05T18:24:16.024Z,3.25
2022-08-05T18:26:18.864Z,2.75
2022-08-05T18:28:22.054Z,1.38
2022-08-05T18:30:30.383Z,1.60
2022-08-05T18:32:32.688Z,3.58
2022-08-05T18:34:40.786Z,3.65
2022-08-05T18:36:43.696Z,1.30
2022-08-05T18:38:47.109Z,1.42
2022-08-05T18:41:54.955Z,1.73
2022-08-05T18:43:16.273Z,1.77
2022-08-05T18:45:18.892Z,1.35
2022-08-05T18:47:22.711Z,4.22
2022-08-05T18:49:58.172Z,3.70
2022-08-05T18:52:32.712Z,1.60
2022-08-05T18:54:35.303Z,3.10
2022-08-05T18:56:38.081Z,1.13
2022-08-05T18:58:40.256Z,2.85
2022-08-05T19:00:48.157Z,2.20
2022-08-05T19:02:51.826Z,3.60
2022-08-05T19:05:02.073Z,2.83
2022-08-05T19:07:16.891Z,3.30
2022-08-05T19:09:21.312Z,2.35
2022-08-05T19:11:28.624Z,2.65
2022-08-05T19:13:39.313Z,1.30
2022-08-05T19:15:58.927Z,1.58
2022-08-05T19:18:09.559Z,3.25
2022-08-05T19:20:15.186Z,3.88
2022-08-05T19:22:18.476Z,2.38
2022-08-05T19:24:34.337Z,2.15
2022-08-05T19:26:54.934Z,1.73
2022-08-05T19:28:58.138Z,2.40
2022-08-05T19:31:01.117Z,3.33
2022-08-05T19:33:11.255Z,2.15
2022-08-05T19:35:19.011Z,1.95
2022-08-05T19:37:30.023Z,2.20
2022-08-05T19:39:45.112Z,1.98
2022-08-05T19:42:07.318Z,1.30
2022-08-05T19:44:13.625Z,1.30
2022-08-05T19:46:29.427Z,2.42
2022-08-05T19:48:34.241Z,1.90
2022-08-05T19:50:36.793Z,1.92
2022-08-05T19:54:42.680Z,4.32
2022-08-05T19:56:45.445Z,3.87
2022-08-05T19:58:53.868Z,2.15
2022-08-05T20:00:56.439Z,2.47
2022-08-05T20:02:59.905Z,2.75
2022-08-05T20:05:02.486Z,3.00
2022-08-05T20:07:13.551Z,1.30
2022-08-05T20:09:15.853Z,2.70
2022-08-05T20:11:23.745Z,1.95
2022-08-05T20:13:54.869Z,2.97
2022-08-05T20:15:56.044Z,1.73
2022-08-05T20:18:10.114Z,2.47
2022-08-05T20:20:27.174Z,2.85
2022-08-05T20:22:30.421Z,2.03
2022-08-05T20:24:35.341Z,2.92
2022-08-05T20:26:37.306Z,1.90
2022-08-05T20:28:40.157Z,2.40
2022-08-05T20:30:42.212Z,2.42
2022-08-05T20:32:45.138Z,1.55
2022-08-05T20:34:47.777Z,3.67
2022-08-05T20:36:53.323Z,2.53
2022-08-05T20:38:57.796Z,2.30
2022-08-05T20:41:00.213Z,1.35
2022-08-05T20:43:06.751Z,2.72
2022-08-05T20:45:09.677Z,2.85
2022-08-05T20:47:11.915Z,1.85
2022-08-05T20:49:13.946Z,2.35
2022-08-05T20:51:16.358Z,3.08
2022-08-05T20:53:36.818Z,3.88
2022-08-05T20:55:56.731Z,3.13
2022-08-05T20:58:03.626Z,1.40
2022-08-05T21:00:20.568Z,3.20
2022-08-05T21:02:29.406Z,2.88
2022-08-05T21:04:32.765Z,1.88
2022-08-05T21:06:34.661Z,2.67
2022-08-05T21:08:42.224Z,2.03
2022-08-05T21:10:48.939Z,2.58
2022-08-05T21:12:57.765Z,2.10
2022-08-05T21:15:05.255Z,1.93
2022-08-05T21:17:16.459Z,2.92
2022-08-05T21:19:18.672Z,3.08
2022-08-05T21:21:24.321Z,2.50
2022-08-05T21:23:27.279Z,6.20
2022-08-05T21:25:45.704Z,2.30
2022-08-05T21:27:52.938Z,2.20
2022-08-05T21:29:56.419Z,2.90
2022-08-05T21:31:58.461Z,3.10
2022-08-05T21:34:00.486Z,3.92
2022-08-05T21:36:03.872Z,6.53
2022-08-05T21:38:06.188Z,3.83
2022-08-05T21:40:13.084Z,3.03
2022-08-05T21:42:31.154Z,3.35
2022-08-05T21:44:41.634Z,5.05
2022-08-05T21:46:45.472Z,11.13
2022-08-05T21:48:50.705Z,3.85
2022-08-05T21:50:58.609Z,2.47
2022-08-05T21:53:04.457Z,4.28
2022-08-05T21:55:08.214Z,6.57
2022-08-05T21:57:30.871Z,2.73
2022-08-05T21:59:48.082Z,4.57
2022-08-05T22:01:54.553Z,4.47
2022-08-05T22:03:56.674Z,2.90
2022-08-05T22:05:58.604Z,2.60
2022-08-05T22:08:02.441Z,4.43
2022-08-05T22:10:05.337Z,3.60
2022-08-05T22:12:10.598Z,6.75
2022-08-05T22:14:35.560Z,4.43
2022-08-05T22:16:51.111Z,6.80
2022-08-05T22:18:58.654Z,4.60
2022-08-05T22:21:04.663Z,3.85
2022-08-05T22:24:02.299Z,5.53
2022-08-05T22:26:12.729Z,3.20
2022-08-05T22:28:17.030Z,3.45
2022-08-05T22:30:20.286Z,6.50
2022-08-05T22:32:22.892Z,3.92
2022-08-05T22:34:28.356Z,4.97
2022-08-05T22:36:30.563Z,5.40
2022-08-05T22:38:32.521Z,4.65
2022-08-05T22:40:36.824Z,7.63
2022-08-05T22:42:41.200Z,6.40
2022-08-05T22:44:53.484Z,6.95
2022-08-05T22:46:58.486Z,7.10
2022-08-05T22:49:00.690Z,7.30
2022-08-05T22:51:06.808Z,3.90
2022-08-05T22:53:10.399Z,5.35
2022-08-05T22:55:21.312Z,3.58
2022-08-05T22:57:23.752Z,3.42
2022-08-05T22:59:47.392Z,5.00
2022-08-05T23:02:04.200Z,4.95
2022-08-05T23:04:08.337Z,3.85
2022-08-05T23:06:10.400Z,3.83
2022-08-05T23:08:12.489Z,5.55
2022-08-05T23:10:19.515Z,2.90
2022-08-05T23:12:24.495Z,3.15
2022-08-05T23:16:53.501Z,3.75
2022-08-05T23:18:55.415Z,5.45
2022-08-05T23:20:57.673Z,4.80
2022-08-05T23:23:03.478Z,4.55
2022-08-05T23:25:06.187Z,4.32
2022-08-05T23:27:10.047Z,5.63
2022-08-05T23:29:12.026Z,4.82
2022-08-05T23:31:18.079Z,5.63
2022-08-05T23:33:26.214Z,5.07
2022-08-05T23:35:42.274Z,5.30
2022-08-05T23:37:44.326Z,4.30
2022-08-05T23:39:54.204Z,4.63
2022-08-05T23:41:56.933Z,7.40
2022-08-05T23:44:05.897Z,4.85
2022-08-05T23:46:20.983Z,4.95
2022-08-05T23:48:23.935Z,4.05
2022-08-05T23:50:28.352Z,4.40
2022-08-05T23:52:35.949Z,4.28
2022-08-05T23:54:38.854Z,6.43
2022-08-05T23:56:40.852Z,4.95
2022-08-05T23:58:44.365Z,4.28
